РПИ Хабаровск

Региональный центр Хабаровск (РегЦ Хабаровск)

Зона ответственности РегЦ Хабаровск составляет около 2,5 миллионов квадратных километров. Это небо над Хабаровским и Приморским краями, Еврейской автономной областью, Амурской и Сахалинской областями, а также над нейтральными водами Охотского и Японского морей.

На территории филиала расположено 43 аэродрома различных ведомств, из которых 20 относится к гражданской авиации, из них 4 аэропорта международные: Хабаровск (Новый), Владивосток (Кневичи), Благовещенск (Игнатьево), Южно-Сахалинск (Хомутово). Ряд аэродромов относится к категории совместного базирования или использования.

Секторы РЦ

Хабаровск Контроль (UHHH_CTR) - 124.500

Хабаровск Контроль - Сектор 1 (UHHH_1_CTR) - 126.600

Хабаровск Контроль - Сектор 2 (UHHH_2_CTR) - 129.400

Хабаровск Контроль - Сектор 3 (UHHH_3_CTR) - 133.700

Руководство

Maxim Osmolovskiy

Начальник РегЦ ЕС ОрВД (Хабаровск)
Инструкторы РПИ
Denis Makosov * (Unknown)
Ivan Aksenenko (Instructor)
Maxim Osmolovskiy * (Controller)
Nikolay Yamushev * (Controller)
Sergey Balandin (Senior Instructor)
Входит в состав
Восточная Россия

Диспетчеры РПИ

Диспетчер Рейтинг Допуски *
Ashot Hakobyan Controller UHHH_CTR
Lihan Bao Controller UHHH_CTR , UHWW_GND
Georgii Gamsakhurdiia Controller UHHH_CTR
Igor Melnick Supervisor UHHH_CTR
Ivan Aksenenko Instructor UHHH_CTR
Kirill Ivanov Controller UHHH_CTR
Konstantin Gorbunov Controller UHHH_CTR
Maxim Korobko Senior Student UHHH_CTR  *
Maxim Osmolovskiy Controller UHHH_CTR
Nikolay Yamushev Controller UHHH_CTR
Sergey Balandin Senior Instructor UHHH_CTR
Andrey Smagin Student UHHH_GND
Daniel Cherednichenko Student 2 UHHH_R_APP*, UHSS_TWR, UHWW_TWR
Daniil Lutchenko Student UHWW_GND
Denis Fateev Student UHHH_GND
Dima Zemlansky Student UHHH_GND
Egor Garifulin Student 2 UHHH_TWR, UHSS_TWR, UHWW_TWR
Evgenii Semendiaev Student UHHH_TWR*
Ivan Pivovarov Student UHWW_TWR*
Kirill Babinsev Student 2 UHSS_TWR
Kristina Boitsova Student UHHH_GND
Maxim Sukhorukov Student 2 UHHH_TWR
Nikita Brynkov Student 2 UHSS_R_APP*, UHWW_TWR
Nikita Zikeev Senior Student UHSS_R_APP, UHWW_APP
Nikolai Sholom Student UHHH_GND
Olga Ipatova Student UHHH_GND
Roman Vorontsov Student UHHH_GND
Sergey Voinov Student 2 UHHH_TWR!!!
Stepan Paliy Student UHHH_GND*
Vadim Kotelenec Senior Student UHHH_APP
Valeriya Manzhesova Student UHHH_GND
VLAD Potrivaev Student UHHH_GND

Аэропорты РПИ

ICAO Город Название Погода
UHBB Благовещенск Игнатьево UHBB 100900Z 22001MPS 9999 FEW033 M19/M22 Q1016 R36/810260 NOSIG RMK QFE744/0992
UHWW Владивосток Владивосток UHWW 100900Z 00000MPS 9999 NSC M05/M15 Q1020 R25L/0///70 NOSIG RMK QFE764
UHKD Комсомольск-на-Амуре Дзёмги
UHKK Комсомольск-на-Амуре Хурба
UHNN Николаевск-на-Амуре Николаевск-на-Амуре
UHOO Охотск Охотск
UHKG Советская Гавань Каменный Ручей
UHKM Советская Гавань Май-Гатка
UHHH Хабаровск Хабаровск UHHH 100900Z 24007MPS CAVOK M12/M17 Q1016 R23R/090060 R23L/850350 NOSIG RMK QFE755/1007
UHSS Южно-Сахалинск Хомутово UHSS 100900Z 06002MPS 9999 FEW040CB M09/M10 Q1013 R01/70D NOSIG RMK QFE758/1011
UHNA Аян Аян
UHNB Богородское Богородское
UHSB Буревестник Буревестник
UHHD Дальнереченск Дальнереченск
UHBE Зея Зея
UHSO Зональное Зональное
UHWK Кавалерово Кавалерово
UHSI Курильск Итуруп
UHBI Магдагачи Магдагачи
UHSN Ноглики Ноглики
UHSH Оха Новостройка
UHWP Пластун Пластун
UHBS Свободный Свободный
UHBW Тында Тында
UHHT Хабаровск Хабаровск МВЛ
UHHY Чумикан Чумикан
UHSK Шахтерск Шахтёрск
UHBP Экимчан Экимчан
UHSM Южно-Курильск Менделеево